Time;durP1;ratioP1;P1;durP2;ratioP2;P2;SDS_P1;SDS_P2;PMS_P1;PMS_P2;Temp;Humidity;BMP_temperature;BMP_pressure;BME280_temperature;BME280_humidity;BME280_pressure;Samples;Min_cycle;Max_cycle;Signal;HPM_P1;HPM_P2
2022/07/16 00:03:18;;;;;;;3.33;2.33;;;14.90;99.90;;;;;;4959637;28;20211;-72
2022/07/16 00:05:45;;;;;;;4.67;3.07;;;14.70;99.90;;;;;;4958362;28;20565;-70
2022/07/16 00:08:11;;;;;;;6.57;3.13;;;14.50;99.90;;;;;;4959389;28;20251;-70
2022/07/16 00:10:38;;;;;;;3.43;3.07;;;14.50;99.90;;;;;;4957893;28;20192;-72
2022/07/16 00:13:05;;;;;;;4.13;3.40;;;14.50;99.90;;;;;;4959426;28;20230;-71
2022/07/16 00:15:32;;;;;;;6.80;3.40;;;14.50;99.90;;;;;;4961248;28;20203;-70
2022/07/16 00:20:44;;;;;;;4.13;2.97;;;14.40;99.90;;;;;;4957222;28;20207;-70
2022/07/16 00:23:10;;;;;;;7.93;2.83;;;14.30;99.90;;;;;;4961023;28;20203;-72
2022/07/16 00:25:37;;;;;;;5.43;2.90;;;14.30;99.90;;;;;;4959332;28;20226;-68
2022/07/16 00:28:04;;;;;;;4.90;3.10;;;14.20;99.90;;;;;;4962674;28;20224;-70
2022/07/16 00:30:30;;;;;;;4.10;2.77;;;14.40;99.90;;;;;;4958640;28;20203;-68
2022/07/16 00:33:29;;;;;;;5.47;3.10;;;14.50;99.90;;;;;;5695504;23;20240;-66
2022/07/16 00:35:56;;;;;;;3.77;3.10;;;14.60;99.90;;;;;;4936734;28;20219;-66
2022/07/16 00:38:23;;;;;;;4.40;3.00;;;14.50;99.90;;;;;;4945461;28;20909;-66
2022/07/16 00:40:49;;;;;;;4.00;3.10;;;14.50;99.90;;;;;;4942075;28;20244;-66
2022/07/16 00:43:16;;;;;;;3.93;2.97;;;14.40;99.90;;;;;;4940844;28;20204;-66
2022/07/16 00:45:43;;;;;;;3.67;2.80;;;14.40;99.90;;;;;;4938104;29;20230;-66
2022/07/16 00:48:11;;;;;;;10.27;3.20;;;14.50;99.90;;;;;;4939429;28;20207;-66
2022/07/16 00:50:39;;;;;;;3.90;3.20;;;14.40;99.90;;;;;;4937190;28;20226;-67
2022/07/16 00:53:09;;;;;;;6.27;3.20;;;14.30;99.90;;;;;;4939730;29;20206;-66
2022/07/16 00:55:37;;;;;;;4.20;2.87;;;14.40;99.90;;;;;;4937458;29;20208;-66
2022/07/16 00:58:04;;;;;;;4.37;3.13;;;14.30;99.90;;;;;;4936901;28;20206;-66
2022/07/16 01:00:30;;;;;;;4.83;3.43;;;14.20;99.90;;;;;;4938699;28;20225;-66
2022/07/16 01:02:59;;;;;;;3.90;3.03;;;14.00;99.90;;;;;;4935924;29;20220;-66
2022/07/16 01:05:26;;;;;;;5.13;3.57;;;14.00;99.90;;;;;;4935559;28;20252;-66
2022/07/16 01:07:55;;;;;;;5.23;3.60;;;14.00;99.90;;;;;;4945237;28;20600;-66
2022/07/16 01:10:22;;;;;;;5.40;3.40;;;14.10;99.90;;;;;;4947449;28;20592;-66
2022/07/16 01:12:59;;;;;;;6.20;3.63;;;14.00;99.90;;;;;;4943398;28;20206;-66
2022/07/16 01:15:25;;;;;;;4.20;3.47;;;14.10;99.90;;;;;;4946389;28;20212;-66
2022/07/16 01:17:53;;;;;;;4.27;3.47;;;14.10;99.90;;;;;;4944826;28;20212;-66
2022/07/16 01:20:20;;;;;;;6.67;3.57;;;14.00;99.90;;;;;;4948444;28;20261;-66
2022/07/16 01:22:48;;;;;;;4.50;3.40;;;13.90;99.90;;;;;;4940577;29;20206;-65
2022/07/16 01:25:14;;;;;;;5.73;3.70;;;13.80;99.90;;;;;;4947394;28;20226;-65
2022/07/16 01:27:41;;;;;;;7.10;3.67;;;13.80;99.90;;;;;;4947648;28;20201;-66
2022/07/16 01:30:09;;;;;;;5.43;3.80;;;13.70;99.90;;;;;;4944531;28;20223;-66
2022/07/16 01:32:36;;;;;;;4.97;4.00;;;13.70;99.90;;;;;;4945661;29;20567;-66
2022/07/16 01:35:04;;;;;;;5.00;3.57;;;13.70;99.90;;;;;;4944059;28;20206;-66
2022/07/16 01:37:31;;;;;;;4.60;3.43;;;13.70;99.90;;;;;;4951016;28;20205;-65
2022/07/16 01:39:57;;;;;;;3.73;3.20;;;13.60;99.90;;;;;;4951352;28;20217;-66
2022/07/16 01:42:24;;;;;;;5.77;3.40;;;13.60;99.90;;;;;;4948712;28;20198;-66
2022/07/16 01:44:51;;;;;;;4.67;3.27;;;13.60;99.90;;;;;;4953166;28;20267;-66
2022/07/16 01:47:18;;;;;;;4.00;3.03;;;13.60;99.90;;;;;;4953087;28;20722;-66
2022/07/16 01:49:45;;;;;;;5.20;3.40;;;13.50;99.90;;;;;;4951832;28;20273;-66
2022/07/16 01:52:15;;;;;;;5.67;2.90;;;13.60;99.90;;;;;;4952653;28;20212;-66
2022/07/16 01:54:45;;;;;;;4.10;3.03;;;13.60;99.90;;;;;;4950936;28;20205;-66
2022/07/16 01:57:12;;;;;;;4.80;3.10;;;13.50;99.90;;;;;;4937549;29;20199;-66
2022/07/16 01:59:39;;;;;;;4.37;3.03;;;13.50;99.90;;;;;;4952993;28;20223;-65
2022/07/16 02:02:06;;;;;;;4.10;3.03;;;13.30;99.90;;;;;;4947358;28;20202;-66
2022/07/16 02:04:33;;;;;;;4.87;2.90;;;13.30;99.90;;;;;;4953072;28;20671;-66
2022/07/16 02:07:00;;;;;;;3.33;3.00;;;13.20;99.90;;;;;;4943362;28;20621;-66
2022/07/16 02:09:27;;;;;;;3.50;2.80;;;13.20;99.90;;;;;;4950653;28;20202;-66
2022/07/16 02:11:54;;;;;;;4.40;3.47;;;13.20;99.90;;;;;;4948628;28;21001;-67
2022/07/16 02:14:21;;;;;;;3.13;2.83;;;13.10;99.90;;;;;;4948267;28;20201;-65
2022/07/16 02:16:48;;;;;;;3.50;2.83;;;13.10;99.90;;;;;;4950402;28;20287;-66
2022/07/16 02:19:15;;;;;;;6.23;3.40;;;13.00;99.90;;;;;;4953577;28;20201;-65
2022/07/16 02:21:42;;;;;;;6.33;3.13;;;13.00;99.90;;;;;;4947503;29;20315;-65
2022/07/16 02:24:08;;;;;;;4.90;3.00;;;13.00;99.90;;;;;;4948016;28;20411;-66
2022/07/16 02:26:35;;;;;;;4.77;3.07;;;13.00;99.90;;;;;;4946326;29;20221;-65
2022/07/16 02:29:02;;;;;;;6.40;3.10;;;12.90;99.90;;;;;;4946883;28;20668;-66
2022/07/16 02:31:38;;;;;;;5.60;3.50;;;13.00;99.90;;;;;;4947344;28;21737;-65
2022/07/16 02:34:05;;;;;;;3.97;3.00;;;12.90;99.90;;;;;;4947490;28;20193;-66
2022/07/16 02:36:32;;;;;;;6.13;3.23;;;13.00;99.90;;;;;;4945549;28;20201;-65
2022/07/16 02:38:59;;;;;;;4.83;2.87;;;12.90;99.90;;;;;;4949913;28;20210;-66
2022/07/16 02:41:25;;;;;;;5.20;3.60;;;12.90;99.90;;;;;;4947976;28;20225;-67
2022/07/16 02:43:52;;;;;;;3.83;3.10;;;13.00;99.90;;;;;;4948245;28;20679;-66
2022/07/16 02:46:18;;;;;;;4.43;3.00;;;13.00;99.90;;;;;;4945267;28;20213;-67
2022/07/16 02:48:45;;;;;;;4.47;3.00;;;13.00;99.90;;;;;;4941120;29;20619;-65
2022/07/16 02:51:12;;;;;;;3.40;3.10;;;13.00;99.90;;;;;;4948698;28;20229;-66
2022/07/16 02:53:39;;;;;;;5.70;3.07;;;13.00;99.90;;;;;;4948456;28;20201;-65
2022/07/16 02:56:06;;;;;;;4.03;3.10;;;13.00;99.90;;;;;;4939329;28;20235;-65
2022/07/16 02:58:33;;;;;;;3.97;3.10;;;13.00;99.90;;;;;;4951546;28;20201;-67
2022/07/16 03:01:00;;;;;;;4.70;2.90;;;12.80;99.90;;;;;;4948788;29;20221;-65
2022/07/16 03:03:26;;;;;;;4.83;2.97;;;12.80;99.90;;;;;;4949433;28;20204;-67
2022/07/16 03:05:53;;;;;;;4.37;3.20;;;12.70;99.90;;;;;;4946338;28;20254;-66
2022/07/16 03:08:20;;;;;;;4.23;3.00;;;12.70;99.90;;;;;;4941679;29;20205;-66
2022/07/16 03:10:47;;;;;;;4.33;3.07;;;12.80;99.90;;;;;;4946068;28;20221;-67
2022/07/16 03:13:13;;;;;;;5.10;3.13;;;12.70;99.90;;;;;;4944496;29;20797;-67
2022/07/16 03:15:40;;;;;;;4.07;3.43;;;12.70;99.90;;;;;;4951173;28;20205;-66
2022/07/16 03:18:07;;;;;;;3.33;2.83;;;12.70;99.90;;;;;;4951399;29;20584;-67
2022/07/16 03:20:34;;;;;;;3.77;3.10;;;12.60;99.90;;;;;;4950208;28;20290;-64
2022/07/16 03:23:00;;;;;;;4.27;2.90;;;12.60;99.90;;;;;;4943634;28;20296;-65
2022/07/16 03:25:27;;;;;;;5.43;3.07;;;12.70;99.90;;;;;;4946072;28;20213;-67
2022/07/16 03:27:54;;;;;;;4.03;2.93;;;12.70;99.90;;;;;;4949396;28;20197;-67
2022/07/16 03:30:21;;;;;;;3.87;3.10;;;12.70;99.90;;;;;;4942292;29;20222;-65
2022/07/16 03:32:47;;;;;;;4.50;2.83;;;12.60;99.90;;;;;;4945506;29;20213;-66
2022/07/16 03:35:14;;;;;;;5.70;3.07;;;12.70;99.90;;;;;;4951830;28;20255;-67
2022/07/16 03:40:27;;;;;;;5.80;3.23;;;12.60;99.90;;;;;;4941319;28;20234;-65
2022/07/16 03:42:54;;;;;;;3.40;2.90;;;12.60;99.90;;;;;;4943885;28;20204;-67
2022/07/16 03:45:22;;;;;;;3.90;3.13;;;12.60;99.90;;;;;;4951081;29;20203;-67
2022/07/16 03:47:48;;;;;;;4.93;3.10;;;12.60;99.90;;;;;;4942882;29;20224;-67
2022/07/16 03:50:16;;;;;;;4.30;3.30;;;12.50;99.90;;;;;;4948225;28;20221;-65
2022/07/16 03:52:44;;;;;;;6.13;3.20;;;12.60;99.90;;;;;;4946009;28;20205;-66
2022/07/16 03:55:11;;;;;;;5.07;3.20;;;12.60;99.90;;;;;;4945014;28;20722;-66
2022/07/16 03:57:38;;;;;;;4.73;3.63;;;12.70;99.90;;;;;;4946942;28;20224;-67
2022/07/16 04:00:05;;;;;;;3.23;2.93;;;12.50;99.90;;;;;;4941850;29;20219;-66
2022/07/16 04:02:32;;;;;;;3.60;3.10;;;12.50;99.90;;;;;;4948381;28;20200;-65
2022/07/16 04:04:59;;;;;;;4.87;3.33;;;12.40;99.90;;;;;;4946636;28;20200;-65
2022/07/16 04:07:26;;;;;;;4.87;3.30;;;12.50;99.90;;;;;;4949234;28;20222;-65
2022/07/16 04:09:53;;;;;;;4.10;3.23;;;12.50;99.90;;;;;;4944661;28;20224;-65
2022/07/16 04:12:23;;;;;;;4.67;3.00;;;12.60;99.90;;;;;;4947344;28;20198;-65
2022/07/16 04:14:51;;;;;;;4.07;3.00;;;12.70;99.90;;;;;;4945479;29;20204;-66
2022/07/16 04:17:18;;;;;;;5.37;3.13;;;12.70;99.90;;;;;;4947890;29;20699;-64
2022/07/16 04:19:45;;;;;;;3.80;2.83;;;12.90;99.90;;;;;;4949067;28;20249;-66
2022/07/16 04:22:12;;;;;;;4.63;3.00;;;13.00;99.90;;;;;;4945804;29;20217;-66
2022/07/16 04:24:39;;;;;;;4.20;2.70;;;12.90;99.90;;;;;;4946509;29;20196;-64
2022/07/16 04:27:06;;;;;;;4.13;3.10;;;12.80;99.90;;;;;;4945700;28;20220;-66
2022/07/16 04:29:32;;;;;;;3.53;2.73;;;12.90;99.90;;;;;;4946878;29;20203;-66
2022/07/16 04:31:59;;;;;;;4.00;2.93;;;12.90;99.90;;;;;;4945490;28;20296;-66
2022/07/16 04:34:26;;;;;;;4.00;3.10;;;13.00;99.90;;;;;;4944194;28;20213;-65
2022/07/16 04:36:53;;;;;;;3.90;2.93;;;13.10;99.90;;;;;;4946853;29;20203;-65
2022/07/16 04:39:25;;;;;;;6.43;3.30;;;13.00;99.90;;;;;;4941421;28;20207;-66
2022/07/16 04:41:51;;;;;;;3.30;3.00;;;13.10;99.90;;;;;;4941715;29;20194;-66
2022/07/16 04:44:18;;;;;;;6.00;3.40;;;13.10;99.90;;;;;;4942925;28;20212;-65
2022/07/16 04:46:50;;;;;;;6.37;3.30;;;13.20;99.90;;;;;;4948562;28;20717;-67
2022/07/16 04:49:16;;;;;;;4.50;3.10;;;13.30;99.90;;;;;;4945925;28;20201;-65
2022/07/16 04:51:43;;;;;;;5.87;3.57;;;13.40;99.90;;;;;;4948526;29;20214;-65
2022/07/16 04:54:10;;;;;;;6.77;3.13;;;13.40;99.90;;;;;;4946395;29;20204;-66
2022/07/16 04:56:36;;;;;;;4.20;3.20;;;13.60;99.90;;;;;;4944302;28;20205;-65
2022/07/16 04:59:03;;;;;;;4.80;3.70;;;13.70;99.90;;;;;;4944452;29;20203;-66
2022/07/16 05:01:30;;;;;;;3.97;3.33;;;13.80;99.90;;;;;;4941780;28;20595;-66
2022/07/16 05:03:56;;;;;;;5.07;3.67;;;13.80;99.90;;;;;;4947813;28;20687;-65
2022/07/16 05:06:23;;;;;;;4.93;3.50;;;13.80;99.90;;;;;;4944736;29;20211;-66
2022/07/16 05:08:50;;;;;;;5.20;3.40;;;13.90;99.90;;;;;;4944363;28;20199;-66
2022/07/16 05:11:17;;;;;;;5.23;3.20;;;14.00;99.90;;;;;;4948448;28;20720;-66
2022/07/16 05:13:44;;;;;;;3.77;3.40;;;14.10;99.90;;;;;;4943102;29;20198;-66
2022/07/16 05:16:11;;;;;;;7.10;3.30;;;14.10;99.90;;;;;;4944781;28;20230;-66
2022/07/16 05:18:38;;;;;;;7.43;3.00;;;14.20;99.90;;;;;;4940194;28;20207;-66
2022/07/16 05:21:05;;;;;;;3.50;3.20;;;14.30;99.90;;;;;;4946693;29;20219;-66
2022/07/16 05:23:31;;;;;;;7.07;3.13;;;14.20;99.90;;;;;;4948277;28;20206;-65
2022/07/16 05:25:58;;;;;;;3.87;2.70;;;14.40;99.90;;;;;;4947335;28;20210;-66
2022/07/16 05:28:25;;;;;;;3.93;3.07;;;14.50;99.90;;;;;;4949060;28;20195;-66
2022/07/16 05:30:51;;;;;;;6.17;3.17;;;14.60;99.90;;;;;;4942494;29;20219;-65
2022/07/16 05:33:18;;;;;;;3.97;2.87;;;14.60;99.90;;;;;;4941204;28;20213;-65
2022/07/16 05:35:45;;;;;;;9.67;4.10;;;14.70;99.90;;;;;;4944378;28;20263;-66
2022/07/16 05:38:12;;;;;;;5.67;4.23;;;14.80;99.90;;;;;;4944335;29;20207;-66
2022/07/16 05:40:39;;;;;;;8.07;4.00;;;15.00;99.90;;;;;;4944486;28;20217;-66
2022/07/16 05:43:06;;;;;;;9.43;4.10;;;15.00;99.90;;;;;;4947259;28;20206;-65
2022/07/16 05:45:33;;;;;;;5.97;3.87;;;15.20;99.90;;;;;;4942277;28;20201;-65
2022/07/16 05:48:00;;;;;;;5.00;3.83;;;15.30;99.90;;;;;;4947310;28;20585;-66
2022/07/16 05:50:27;;;;;;;5.20;3.83;;;15.40;99.90;;;;;;4942732;28;20220;-65
2022/07/16 05:52:53;;;;;;;5.87;3.57;;;15.70;99.90;;;;;;4944760;28;20653;-66
2022/07/16 05:55:21;;;;;;;5.93;3.60;;;16.00;99.90;;;;;;4944829;28;20204;-66
2022/07/16 05:57:48;;;;;;;5.57;3.50;;;16.20;99.90;;;;;;4948315;28;20668;-65
2022/07/16 06:00:15;;;;;;;4.33;2.80;;;16.30;99.90;;;;;;4945442;28;20727;-65
2022/07/16 06:02:42;;;;;;;4.13;2.90;;;16.60;99.90;;;;;;4945663;28;20206;-65
2022/07/16 06:05:10;;;;;;;4.27;3.07;;;16.60;99.90;;;;;;4947199;28;20198;-65
2022/07/16 06:07:37;;;;;;;5.20;3.27;;;16.60;99.90;;;;;;4945429;28;20277;-65
2022/07/16 06:10:05;;;;;;;6.20;3.70;;;16.50;99.90;;;;;;4946722;28;20211;-65
2022/07/16 06:12:31;;;;;;;6.93;4.20;;;16.60;99.90;;;;;;4944424;28;20680;-65
2022/07/16 06:14:58;;;;;;;11.00;4.60;;;16.60;99.90;;;;;;4944317;28;20567;-66
2022/07/16 06:17:25;;;;;;;5.53;3.60;;;16.60;99.90;;;;;;4943594;29;20206;-67
2022/07/16 06:19:52;;;;;;;8.17;3.70;;;16.60;99.90;;;;;;4947651;28;20222;-66
2022/07/16 06:22:19;;;;;;;7.77;3.23;;;16.70;99.90;;;;;;4946537;28;20699;-65
2022/07/16 06:24:45;;;;;;;8.37;3.17;;;16.70;99.90;;;;;;4951073;28;20616;-65
2022/07/16 06:27:12;;;;;;;3.73;2.83;;;17.00;99.90;;;;;;4948466;28;20214;-65
2022/07/16 06:29:39;;;;;;;4.97;2.40;;;17.00;99.90;;;;;;4946093;29;20226;-65
2022/07/16 06:32:06;;;;;;;5.23;2.90;;;17.20;99.90;;;;;;4942122;28;20199;-65
2022/07/16 06:34:33;;;;;;;6.97;2.70;;;17.20;99.90;;;;;;4949513;29;20571;-66
2022/07/16 06:37:00;;;;;;;4.87;2.93;;;17.40;99.90;;;;;;4947961;28;20206;-65
2022/07/16 06:39:26;;;;;;;3.83;2.50;;;17.40;99.90;;;;;;4944995;28;20221;-65
2022/07/16 06:41:53;;;;;;;5.23;3.10;;;17.50;99.90;;;;;;4948699;28;20206;-66
2022/07/16 06:44:20;;;;;;;5.27;3.10;;;17.60;99.90;;;;;;4948379;28;20602;-68
2022/07/16 06:46:46;;;;;;;7.33;3.20;;;17.70;99.90;;;;;;4944336;29;20708;-69
2022/07/16 06:49:14;;;;;;;6.13;2.83;;;17.80;99.90;;;;;;4948354;28;20475;-69
2022/07/16 06:51:41;;;;;;;5.47;3.30;;;18.00;99.90;;;;;;4947752;29;20818;-66
2022/07/16 06:54:08;;;;;;;6.73;2.60;;;18.00;99.90;;;;;;4948991;28;20198;-66
2022/07/16 06:56:34;;;;;;;2.80;1.73;;;18.00;99.90;;;;;;4945686;29;20571;-66
2022/07/16 06:59:01;;;;;;;4.87;1.70;;;18.10;99.90;;;;;;4945249;29;20206;-66
2022/07/16 07:01:28;;;;;;;3.07;2.00;;;18.30;99.90;;;;;;4951926;28;20691;-65
2022/07/16 07:03:54;;;;;;;4.07;2.00;;;18.50;99.90;;;;;;4945870;28;20206;-65
2022/07/16 07:06:21;;;;;;;2.70;1.90;;;18.80;99.90;;;;;;4941034;29;20205;-65
2022/07/16 07:08:48;;;;;;;3.57;1.63;;;19.40;99.90;;;;;;4948753;28;20198;-65
2022/07/16 07:11:21;;;;;;;4.57;1.50;;;20.20;99.90;;;;;;4941195;28;20639;-68
2022/07/16 07:13:48;;;;;;;5.63;1.80;;;21.20;99.90;;;;;;4950239;28;20548;-67
2022/07/16 07:16:16;;;;;;;4.83;2.20;;;21.40;99.90;;;;;;4951552;28;20257;-65
2022/07/16 07:18:42;;;;;;;4.20;1.70;;;21.70;99.90;;;;;;4952736;28;20205;-65
2022/07/16 07:21:09;;;;;;;2.30;1.60;;;21.90;99.90;;;;;;4944250;28;20226;-67
2022/07/16 07:23:36;;;;;;;3.28;1.90;;;22.30;99.90;;;;;;4944642;29;20198;-67
2022/07/16 07:26:03;;;;;;;4.25;1.77;;;22.60;99.90;;;;;;4948608;29;20203;-67
2022/07/16 07:28:30;;;;;;;8.32;1.50;;;23.20;99.90;;;;;;4947362;28;20292;-68
2022/07/16 07:30:57;;;;;;;1.85;1.48;;;24.00;99.90;;;;;;4946621;28;20242;-69
2022/07/16 07:33:24;;;;;;;1.88;1.40;;;24.70;99.90;;;;;;4950723;28;20198;-68
2022/07/16 07:35:51;;;;;;;3.67;1.50;;;25.50;99.90;;;;;;4947007;29;20566;-68
2022/07/16 07:38:18;;;;;;;2.00;1.20;;;26.10;99.90;;;;;;4945172;28;20685;-67
2022/07/16 07:40:46;;;;;;;3.88;1.65;;;26.80;99.90;;;;;;4945982;28;20234;-66
2022/07/16 07:43:13;;;;;;;2.63;1.67;;;26.40;99.90;;;;;;4948563;28;20206;-66
2022/07/16 07:45:40;;;;;;;3.80;1.83;;;26.40;99.90;;;;;;4949176;29;20222;-66
2022/07/16 07:48:06;;;;;;;5.97;1.70;;;25.80;99.90;;;;;;4942209;28;20598;-66
2022/07/16 07:50:33;;;;;;;1.83;1.45;;;25.20;99.90;;;;;;4951208;28;20229;-66
2022/07/16 07:53:00;;;;;;;3.80;1.90;;;25.10;99.90;;;;;;4944493;29;20194;-66
2022/07/16 07:55:27;;;;;;;3.42;1.73;;;25.20;99.90;;;;;;4949586;28;20198;-66
2022/07/16 07:57:54;;;;;;;2.70;1.30;;;25.10;99.90;;;;;;4942775;28;20232;-66
2022/07/16 08:00:21;;;;;;;4.80;1.50;;;25.30;99.90;;;;;;4949822;28;20236;-66
2022/07/16 08:02:47;;;;;;;2.55;1.83;;;25.50;99.90;;;;;;4949859;28;20198;-66
2022/07/16 08:05:15;;;;;;;3.90;1.67;;;25.40;99.90;;;;;;4946421;28;20734;-66
2022/07/16 08:07:43;;;;;;;2.58;2.00;;;25.30;99.90;;;;;;4948884;28;20218;-67
2022/07/16 08:10:11;;;;;;;3.97;1.52;;;24.80;99.90;;;;;;4950300;28;20602;-67
2022/07/16 08:12:39;;;;;;;2.55;1.67;;;24.60;99.90;;;;;;4947293;29;20206;-67
2022/07/16 08:15:07;;;;;;;2.08;1.40;;;24.40;99.90;;;;;;4946479;28;20203;-67
2022/07/16 08:17:39;;;;;;;5.72;1.50;;;24.40;99.90;;;;;;4946133;28;20387;-69
2022/07/16 08:20:07;;;;;;;3.67;1.58;;;24.50;99.90;;;;;;4947100;29;20230;-68
2022/07/16 08:22:34;;;;;;;2.05;1.40;;;24.30;99.90;;;;;;4944145;28;20226;-66
2022/07/16 08:27:46;;;;;;;1.73;1.33;;;23.90;99.90;;;;;;4957356;28;20217;-66
2022/07/16 08:30:13;;;;;;;2.78;1.52;;;23.80;99.90;;;;;;4946483;28;20256;-65
2022/07/16 08:32:40;;;;;;;2.03;1.40;;;24.10;99.90;;;;;;4940671;28;20570;-65
2022/07/16 08:35:07;;;;;;;3.28;1.60;;;24.40;99.90;;;;;;4937162;28;20199;-65
2022/07/16 08:37:36;;;;;;;5.53;1.65;;;24.50;99.90;;;;;;4949089;29;20216;-65
2022/07/16 08:40:09;;;;;;;4.65;1.58;;;24.90;99.90;;;;;;4941589;28;20229;-66
2022/07/16 08:42:37;;;;;;;1.75;1.55;;;25.20;99.90;;;;;;4939581;29;20202;-65
2022/07/16 08:45:05;;;;;;;1.67;1.50;;;25.30;99.90;;;;;;4931509;29;20209;-75
2022/07/16 08:47:33;;;;;;;2.58;1.95;;;25.30;99.90;;;;;;4943918;29;20214;-66
2022/07/16 08:50:03;;;;;;;3.78;1.35;;;25.50;99.90;;;;;;4943402;28;20230;-65
2022/07/16 08:52:30;;;;;;;2.47;1.70;;;25.60;99.90;;;;;;4938054;29;20205;-65
2022/07/16 08:54:57;;;;;;;2.55;1.58;;;25.80;99.90;;;;;;4939024;28;20199;-64
2022/07/16 08:57:24;;;;;;;3.50;1.63;;;25.80;99.90;;;;;;4941526;28;20210;-65
2022/07/16 08:59:52;;;;;;;3.63;1.45;;;25.90;99.90;;;;;;4943866;28;20218;-65
2022/07/16 09:02:20;;;;;;;2.45;1.60;;;25.20;99.90;;;;;;4944574;29;20553;-66
2022/07/16 09:04:46;;;;;;;3.10;1.67;;;25.00;99.90;;;;;;4942836;29;20681;-65
2022/07/16 09:07:15;;;;;;;2.38;1.50;;;24.90;99.90;;;;;;4944378;28;20225;-65
2022/07/16 09:09:44;;;;;;;2.15;1.75;;;24.80;99.90;;;;;;4946230;28;20218;-65
2022/07/16 09:12:30;;;;;;;3.53;1.48;;;24.80;99.90;;;;;;4947599;28;20198;-65
2022/07/16 09:14:56;;;;;;;2.38;1.70;;;24.70;99.90;;;;;;4943168;29;20202;-65
2022/07/16 09:17:23;;;;;;;2.88;1.60;;;24.70;99.90;;;;;;4939378;28;20198;-65
2022/07/16 09:19:50;;;;;;;6.00;1.80;;;24.70;99.90;;;;;;4941324;28;20560;-65
2022/07/16 09:22:17;;;;;;;2.88;1.67;;;24.70;99.90;;;;;;4936846;28;20656;-67
2022/07/16 09:24:47;;;;;;;2.40;1.50;;;24.80;99.90;;;;;;4940127;29;20205;-68
2022/07/16 09:27:15;;;;;;;2.50;1.90;;;25.00;99.90;;;;;;4943612;29;20398;-69
2022/07/16 09:29:58;;;;;;;3.80;1.98;;;25.20;99.90;;;;;;4935786;28;20422;-68
2022/07/16 09:32:37;;;;;;;2.28;1.70;;;25.30;99.90;;;;;;4943993;28;20213;-69
2022/07/16 09:35:10;;;;;;;3.72;1.70;;;25.20;99.90;;;;;;4942797;29;20210;-69
2022/07/16 09:37:48;;;;;;;3.72;1.90;;;25.30;99.90;;;;;;4940810;28;20377;-71
2022/07/16 09:40:27;;;;;;;2.92;1.73;;;25.30;99.90;;;;;;4943190;29;20226;-67
2022/07/16 09:42:54;;;;;;;2.50;1.70;;;25.30;99.90;;;;;;4943325;28;20205;-67
2022/07/16 09:45:22;;;;;;;3.53;1.67;;;25.50;99.80;;;;;;4943345;29;20204;-67
2022/07/16 09:47:49;;;;;;;3.20;1.80;;;25.70;99.30;;;;;;4939651;28;20229;-72
2022/07/16 09:50:16;;;;;;;3.70;1.75;;;25.50;99.90;;;;;;4945203;28;20233;-71
2022/07/16 09:52:43;;;;;;;2.85;1.70;;;25.50;99.50;;;;;;4942100;28;20194;-68
2022/07/16 09:55:10;;;;;;;3.00;1.33;;;25.30;99.40;;;;;;4946164;28;20692;-70
2022/07/16 09:57:37;;;;;;;3.33;1.30;;;25.40;99.30;;;;;;4946048;29;20206;-67
2022/07/16 10:00:08;;;;;;;2.83;1.80;;;25.30;99.60;;;;;;4943286;29;20248;-66
2022/07/16 10:02:35;;;;;;;8.02;1.65;;;25.50;99.70;;;;;;4952520;29;20202;-66
2022/07/16 10:05:02;;;;;;;3.45;1.85;;;25.80;99.20;;;;;;4944782;29;20241;-66
2022/07/16 10:07:32;;;;;;;4.28;1.77;;;25.70;99.10;;;;;;4951400;29;20230;-66
2022/07/16 10:09:59;;;;;;;2.78;1.27;;;25.90;98.90;;;;;;4950928;28;20221;-66
2022/07/16 10:12:29;;;;;;;2.60;1.50;;;25.40;99.20;;;;;;4947823;28;20609;-65
2022/07/16 10:14:57;;;;;;;3.85;1.60;;;25.20;99.40;;;;;;4949023;29;20455;-65
2022/07/16 10:17:37;;;;;;;2.90;1.35;;;25.00;99.70;;;;;;4944635;28;20203;-65
2022/07/16 10:20:11;;;;;;;2.22;1.30;;;25.10;99.00;;;;;;4949152;28;20214;-65
2022/07/16 10:22:43;;;;;;;1.92;1.40;;;25.10;99.30;;;;;;4951350;28;20681;-65
2022/07/16 10:25:32;;;;;;;3.83;1.63;;;25.10;98.90;;;;;;4948280;29;20281;-66
2022/07/16 10:27:59;;;;;;;2.35;1.58;;;25.20;99.30;;;;;;4947252;28;20226;-68
2022/07/16 10:30:29;;;;;;;5.03;1.60;;;25.30;98.50;;;;;;4950855;28;20719;-69
2022/07/16 10:32:59;;;;;;;3.10;1.50;;;25.30;98.50;;;;;;4935496;29;20233;-69
2022/07/16 10:35:32;;;;;;;4.07;2.10;;;25.30;98.50;;;;;;4934158;28;20306;-69
2022/07/16 10:38:20;;;;;;;4.63;2.10;;;25.80;98.90;;;;;;4937853;29;20429;-68
2022/07/16 10:41:08;;;;;;;2.05;1.40;;;26.10;97.80;;;;;;4931453;28;20701;-69
2022/07/16 10:43:36;;;;;;;2.90;1.60;;;26.20;98.20;;;;;;4933973;28;20199;-70
2022/07/16 10:46:06;;;;;;;2.17;1.40;;;26.40;98.30;;;;;;4951957;29;20200;-69
2022/07/16 10:48:38;;;;;;;2.65;1.70;;;26.50;98.20;;;;;;4940360;28;20399;-68
2022/07/16 10:51:15;;;;;;;3.28;1.80;;;26.20;98.50;;;;;;4947516;28;20309;-69
2022/07/16 10:54:14;;;;;;;4.45;1.50;;;25.70;98.80;;;;;;4947549;29;20234;-67
2022/07/16 10:56:49;;;;;;;2.38;1.70;;;25.50;99.30;;;;;;4944928;28;20585;-67
2022/07/16 10:59:28;;;;;;;3.75;1.60;;;25.00;99.50;;;;;;4948604;29;20207;-67
2022/07/16 11:02:04;;;;;;;2.88;1.80;;;25.10;99.90;;;;;;4949032;28;20202;-68
2022/07/16 11:04:36;;;;;;;3.25;1.77;;;25.40;99.70;;;;;;4946830;28;20204;-68
2022/07/16 11:07:16;;;;;;;3.65;1.77;;;25.50;99.50;;;;;;4944046;28;20199;-69
2022/07/16 11:09:52;;;;;;;3.75;1.80;;;25.30;99.90;;;;;;4944847;28;20223;-68
2022/07/16 11:12:21;;;;;;;1.95;1.75;;;25.40;99.90;;;;;;4948399;28;20193;-68
2022/07/16 11:14:50;;;;;;;3.42;1.83;;;25.70;99.90;;;;;;4951846;28;20195;-68
2022/07/16 11:17:21;;;;;;;3.08;1.60;;;25.60;99.30;;;;;;4947932;29;20218;-68
2022/07/16 11:19:55;;;;;;;3.33;2.60;;;25.90;99.30;;;;;;4946426;28;20306;-68
2022/07/16 11:22:24;;;;;;;4.03;1.90;;;25.70;99.00;;;;;;4949118;29;20214;-69
2022/07/16 11:24:53;;;;;;;2.95;1.65;;;25.50;99.20;;;;;;4948520;28;20503;-69
2022/07/16 11:27:32;;;;;;;2.75;1.80;;;25.70;99.10;;;;;;4946671;28;20285;-68
2022/07/16 11:30:01;;;;;;;3.30;1.92;;;25.60;99.90;;;;;;4943335;28;20226;-68
2022/07/16 11:32:27;;;;;;;2.00;1.77;;;25.80;99.90;;;;;;4943314;29;20653;-66
2022/07/16 11:34:55;;;;;;;2.92;1.80;;;26.00;99.40;;;;;;4943693;29;20210;-67
2022/07/16 11:37:22;;;;;;;4.63;2.15;;;25.70;99.50;;;;;;4954615;28;20592;-67
2022/07/16 11:39:57;;;;;;;2.33;1.90;;;25.70;99.80;;;;;;4946179;28;20273;-66
2022/07/16 11:42:24;;;;;;;3.70;1.95;;;25.70;99.80;;;;;;4946514;29;20200;-66
2022/07/16 11:44:52;;;;;;;1.92;1.75;;;25.90;99.50;;;;;;4945848;28;20198;-66
2022/07/16 11:47:18;;;;;;;3.97;1.63;;;26.20;99.60;;;;;;4947654;28;20277;-66
2022/07/16 11:49:48;;;;;;;3.03;2.20;;;26.10;99.00;;;;;;4948563;28;20599;-66
2022/07/16 11:52:21;;;;;;;2.28;1.80;;;25.80;99.30;;;;;;4947105;29;20683;-66
2022/07/16 11:54:49;;;;;;;3.65;1.85;;;25.70;99.90;;;;;;4946486;28;20269;-66
2022/07/16 11:57:16;;;;;;;4.72;2.55;;;25.90;99.90;;;;;;4942166;29;20234;-66
2022/07/16 11:59:47;;;;;;;4.68;2.20;;;26.00;99.80;;;;;;4947003;28;20225;-66
2022/07/16 12:02:20;;;;;;;3.22;2.08;;;26.40;99.90;;;;;;4948135;28;20214;-67
2022/07/16 12:04:50;;;;;;;3.28;2.00;;;26.70;98.80;;;;;;4952089;28;20567;-66
2022/07/16 12:07:26;;;;;;;6.00;2.20;;;26.90;99.20;;;;;;4950233;29;20202;-66
2022/07/16 12:09:55;;;;;;;3.47;2.13;;;27.30;99.40;;;;;;4950242;28;20529;-66
2022/07/16 12:12:36;;;;;;;3.85;2.30;;;27.60;98.80;;;;;;4948154;28;20222;-67
2022/07/16 12:15:13;;;;;;;3.38;2.13;;;27.60;99.40;;;;;;4944947;29;20195;-66
2022/07/16 12:17:46;;;;;;;2.80;2.20;;;27.20;99.20;;;;;;4949036;28;20296;-66
2022/07/16 12:20:22;;;;;;;5.45;2.20;;;26.80;99.70;;;;;;4946551;28;20222;-66
2022/07/16 12:22:59;;;;;;;3.35;2.28;;;26.30;99.90;;;;;;4943265;28;20202;-66
2022/07/16 12:25:30;;;;;;;6.35;2.30;;;26.30;99.90;;;;;;4943809;28;20254;-66
2022/07/16 12:28:05;;;;;;;5.03;2.50;;;26.40;99.90;;;;;;4944233;28;20222;-66
2022/07/16 12:30:49;;;;;;;4.80;2.30;;;26.00;99.90;;;;;;4938191;29;20222;-66
2022/07/16 12:33:19;;;;;;;4.07;2.38;;;25.70;99.90;;;;;;4943215;28;20202;-68
2022/07/16 12:35:49;;;;;;;3.13;1.90;;;25.70;99.70;;;;;;4945250;28;20203;-67
2022/07/16 12:38:35;;;;;;;2.00;1.80;;;25.70;99.90;;;;;;4946545;28;20202;-68
2022/07/16 12:41:02;;;;;;;2.42;2.10;;;26.30;99.80;;;;;;4943056;28;20233;-68
2022/07/16 12:43:29;;;;;;;2.88;1.90;;;26.80;99.10;;;;;;4942162;28;20571;-69
2022/07/16 12:45:55;;;;;;;5.35;2.00;;;27.10;98.90;;;;;;4944495;28;20210;-68
2022/07/16 12:48:22;;;;;;;3.95;1.90;;;27.50;98.90;;;;;;4946047;29;20226;-69
2022/07/16 12:50:49;;;;;;;3.33;2.10;;;27.30;99.00;;;;;;4941658;28;20297;-70
2022/07/16 12:53:16;;;;;;;2.33;1.90;;;27.00;99.10;;;;;;4947256;28;20203;-68
2022/07/16 13:01:20;;;;;;;2.22;1.90;;;25.80;99.30;;;;;;4943995;28;20277;-68
2022/07/16 13:03:48;;;;;;;2.70;1.80;;;25.90;98.90;;;;;;4946321;28;20203;-68
2022/07/16 13:06:15;;;;;;;2.20;1.80;;;25.90;98.40;;;;;;4946426;28;20796;-69
2022/07/16 13:08:42;;;;;;;3.97;1.98;;;26.20;98.90;;;;;;4943534;28;20226;-68
2022/07/16 13:11:11;;;;;;;3.05;1.95;;;26.80;98.30;;;;;;4944078;28;20711;-69